Time;durP1;ratioP1;P1;durP2;ratioP2;P2;SDS_P1;SDS_P2;PMS_P1;PMS_P2;Temp;Humidity;BMP_temperature;BMP_pressure;BME280_temperature;BME280_humidity;BME280_pressure;Samples;Min_cycle;Max_cycle;Signal;HPM_P1;HPM_P2
2022/08/23 00:01:39;;;;;;;4.32;2.10;;;16.80;99.90;;;;;;5037063;28;20052;-80
2022/08/23 00:04:09;;;;;;;2.20;1.40;;;16.70;99.90;;;;;;5037789;28;20060;-80
2022/08/23 00:06:35;;;;;;;2.28;1.63;;;16.70;99.90;;;;;;5064276;28;20054;-80
2022/08/23 00:09:01;;;;;;;4.13;1.60;;;16.70;99.90;;;;;;5039957;28;20029;-81
2022/08/23 00:11:37;;;;;;;2.78;1.40;;;16.60;99.90;;;;;;5037060;28;20459;-82
2022/08/23 00:14:11;;;;;;;3.40;2.17;;;16.60;99.90;;;;;;5070315;28;20494;-82
2022/08/23 00:16:37;;;;;;;3.92;2.10;;;16.50;99.90;;;;;;5052706;28;20345;-82
2022/08/23 00:19:06;;;;;;;3.85;2.42;;;16.50;99.90;;;;;;5057130;28;20451;-82
2022/08/23 00:21:32;;;;;;;4.07;1.70;;;16.40;99.90;;;;;;5073778;28;20044;-82
2022/08/23 00:23:58;;;;;;;4.45;1.80;;;16.40;99.90;;;;;;5058430;28;20041;-79
2022/08/23 00:26:24;;;;;;;4.47;2.13;;;16.30;99.90;;;;;;5065209;28;20059;-79
2022/08/23 00:28:50;;;;;;;2.47;1.58;;;16.30;99.90;;;;;;5035491;28;20029;-79
2022/08/23 00:31:18;;;;;;;2.60;1.80;;;16.30;99.90;;;;;;5036688;28;20045;-79
2022/08/23 00:33:44;;;;;;;2.05;1.40;;;16.30;99.90;;;;;;5057731;28;20083;-79
2022/08/23 00:36:09;;;;;;;4.78;1.75;;;16.30;99.90;;;;;;5053236;28;20429;-79
2022/08/23 00:38:35;;;;;;;3.78;1.50;;;16.20;99.90;;;;;;5036268;28;20083;-79
2022/08/23 00:41:02;;;;;;;2.35;1.50;;;16.20;99.90;;;;;;5035802;28;20036;-79
2022/08/23 00:49:17;;;;;;;2.63;1.75;;;16.10;99.90;;;;;;5052015;28;20127;-79
2022/08/23 00:52:07;;;;;;;2.92;1.73;;;16.00;99.90;;;;;;5060174;28;20036;-79
2022/08/23 00:54:35;;;;;;;2.70;1.73;;;16.00;99.90;;;;;;5071112;28;20080;-79
2022/08/23 00:57:04;;;;;;;4.53;2.30;;;16.00;99.90;;;;;;5056300;28;20051;-80
2022/08/23 00:59:30;;;;;;;5.97;1.80;;;16.00;99.90;;;;;;5072769;28;20047;-80
2022/08/23 01:01:57;;;;;;;2.47;1.60;;;16.00;99.90;;;;;;5053311;28;20041;-80
2022/08/23 01:04:26;;;;;;;3.40;1.70;;;16.00;99.90;;;;;;5055174;28;20036;-80
2022/08/23 01:07:03;;;;;;;2.95;1.60;;;15.90;99.90;;;;;;5072982;28;20037;-80
2022/08/23 01:09:28;;;;;;;4.45;1.65;;;15.90;99.90;;;;;;5055938;28;20486;-80
2022/08/23 01:12:17;;;;;;;2.08;1.33;;;15.90;99.90;;;;;;5046255;28;20090;-80
2022/08/23 01:14:49;;;;;;;3.13;1.95;;;15.90;99.90;;;;;;5059163;28;20041;-79
2022/08/23 01:17:24;;;;;;;3.05;1.70;;;15.90;99.90;;;;;;5052658;28;20048;-79
2022/08/23 01:20:01;;;;;;;3.00;1.90;;;15.90;99.90;;;;;;5035871;28;20061;-79
2022/08/23 01:22:50;;;;;;;5.82;2.30;;;15.90;99.90;;;;;;5055539;28;20094;-79
2022/08/23 01:25:20;;;;;;;4.65;2.20;;;15.90;99.90;;;;;;5052213;28;20525;-79
2022/08/23 01:27:47;;;;;;;5.10;2.30;;;16.00;99.90;;;;;;5045964;28;20029;-79
2022/08/23 01:30:18;;;;;;;4.97;2.00;;;16.00;99.90;;;;;;5052883;28;20424;-81
2022/08/23 01:32:51;;;;;;;5.97;2.40;;;16.00;99.90;;;;;;5051746;28;20072;-81
2022/08/23 01:35:18;;;;;;;4.07;1.90;;;15.90;99.90;;;;;;5052809;28;20041;-81
2022/08/23 01:37:44;;;;;;;5.45;2.08;;;15.90;99.90;;;;;;5052264;28;20045;-81
2022/08/23 01:40:11;;;;;;;4.93;1.95;;;15.90;99.90;;;;;;5053127;28;20033;-81
2022/08/23 01:42:40;;;;;;;2.97;1.67;;;15.90;99.90;;;;;;5050310;28;20041;-81
2022/08/23 01:45:09;;;;;;;3.30;2.30;;;15.90;99.90;;;;;;5034971;28;20042;-81
2022/08/23 01:47:34;;;;;;;4.47;2.10;;;15.90;99.90;;;;;;5032196;28;20061;-80
2022/08/23 01:50:00;;;;;;;3.03;2.10;;;15.90;99.90;;;;;;5032525;28;20106;-80
2022/08/23 01:52:26;;;;;;;3.13;1.90;;;15.80;99.90;;;;;;5035161;28;20096;-80
2022/08/23 01:54:52;;;;;;;2.92;1.90;;;15.80;99.90;;;;;;5051551;28;20371;-80
2022/08/23 01:57:18;;;;;;;6.32;2.47;;;15.70;99.90;;;;;;5052055;28;20049;-80
2022/08/23 01:59:44;;;;;;;4.82;2.67;;;15.70;99.90;;;;;;5019262;28;20110;-80
2022/08/23 02:02:10;;;;;;;5.72;2.53;;;15.70;99.90;;;;;;5035505;28;20041;-80
2022/08/23 02:04:35;;;;;;;4.22;2.38;;;15.70;99.90;;;;;;5053323;28;20044;-79
2022/08/23 02:07:01;;;;;;;3.05;1.85;;;15.60;99.90;;;;;;5052509;28;20033;-79
2022/08/23 02:09:27;;;;;;;3.88;2.33;;;15.60;99.90;;;;;;5052065;28;20118;-79
2022/08/23 02:11:53;;;;;;;4.78;2.20;;;15.50;99.90;;;;;;5035650;28;20041;-79
2022/08/23 02:14:20;;;;;;;4.90;2.45;;;15.50;99.90;;;;;;5050904;28;20044;-79
2022/08/23 02:16:52;;;;;;;3.97;2.20;;;15.60;99.90;;;;;;5053046;28;20033;-79
2022/08/23 02:19:18;;;;;;;2.97;1.90;;;15.50;99.90;;;;;;5051827;28;20041;-80
2022/08/23 02:21:45;;;;;;;2.58;1.77;;;15.50;99.90;;;;;;5035616;28;20521;-80
2022/08/23 02:24:18;;;;;;;3.38;2.10;;;15.40;99.90;;;;;;5067263;28;20045;-80
2022/08/23 02:26:47;;;;;;;3.50;2.08;;;15.40;99.90;;;;;;5062258;28;20040;-80
2022/08/23 02:29:15;;;;;;;4.40;2.30;;;15.40;99.90;;;;;;5055803;28;20079;-80
2022/08/23 02:31:43;;;;;;;6.03;2.63;;;15.30;99.90;;;;;;5055605;28;20041;-80
2022/08/23 02:34:13;;;;;;;4.15;2.33;;;15.30;99.90;;;;;;5039381;28;20067;-80
2022/08/23 02:36:39;;;;;;;5.43;2.97;;;15.20;99.90;;;;;;5041596;28;20037;-80
2022/08/23 02:39:06;;;;;;;5.35;2.45;;;15.30;99.90;;;;;;5055284;28;20051;-79
2022/08/23 02:41:32;;;;;;;4.32;2.58;;;15.20;99.90;;;;;;5038855;28;20076;-79
2022/08/23 02:43:59;;;;;;;4.35;2.28;;;15.20;99.90;;;;;;5055180;28;20063;-79
2022/08/23 02:46:25;;;;;;;3.85;2.60;;;15.20;99.90;;;;;;5037053;28;20132;-79
2022/08/23 02:48:51;;;;;;;3.78;2.10;;;15.20;99.90;;;;;;5072205;28;20504;-79
2022/08/23 02:51:17;;;;;;;6.15;2.50;;;15.20;99.90;;;;;;5074926;28;20041;-80
2022/08/23 02:53:44;;;;;;;5.45;2.38;;;15.20;99.90;;;;;;5063172;28;20032;-81
2022/08/23 02:56:11;;;;;;;5.65;2.40;;;15.20;99.90;;;;;;5054816;28;20036;-81
2022/08/23 02:58:38;;;;;;;3.55;2.22;;;15.10;99.90;;;;;;5056338;28;20045;-81
2022/08/23 03:01:04;;;;;;;3.95;2.20;;;15.10;99.90;;;;;;5053671;28;20041;-81
2022/08/23 03:03:30;;;;;;;4.28;2.45;;;15.10;99.90;;;;;;5075001;28;20044;-81
2022/08/23 03:05:56;;;;;;;3.70;2.30;;;15.10;99.90;;;;;;5058603;28;20140;-81
2022/08/23 03:08:23;;;;;;;3.15;1.92;;;15.10;99.90;;;;;;5056849;28;20033;-81
2022/08/23 03:10:51;;;;;;;3.80;2.13;;;15.10;99.90;;;;;;5055705;28;20048;-82
2022/08/23 03:13:17;;;;;;;3.90;2.28;;;15.10;99.90;;;;;;5054861;28;20036;-82
2022/08/23 03:15:44;;;;;;;3.83;2.35;;;15.10;99.90;;;;;;5054979;28;20041;-82
2022/08/23 03:18:11;;;;;;;5.72;3.08;;;15.10;99.90;;;;;;5058040;28;20055;-81
2022/08/23 03:20:40;;;;;;;7.18;2.92;;;15.10;99.90;;;;;;5051861;22;20053;-79
2022/08/23 03:23:06;;;;;;;4.53;2.15;;;15.10;99.90;;;;;;5041041;28;20090;-79
2022/08/23 03:25:32;;;;;;;5.07;2.65;;;15.10;99.90;;;;;;5054584;28;20402;-79
2022/08/23 03:28:04;;;;;;;3.50;2.10;;;15.10;99.90;;;;;;5043527;28;20120;-82
2022/08/23 03:30:32;;;;;;;5.57;3.30;;;15.00;99.90;;;;;;5035030;28;20073;-82
2022/08/23 03:32:59;;;;;;;4.25;2.50;;;15.00;99.90;;;;;;5018472;28;20036;-82
2022/08/23 03:35:25;;;;;;;5.38;2.70;;;15.00;99.90;;;;;;5033986;28;20049;-82
2022/08/23 03:37:52;;;;;;;4.55;2.47;;;15.00;99.90;;;;;;5034876;28;20030;-82
2022/08/23 03:40:19;;;;;;;3.13;2.13;;;14.90;99.90;;;;;;5003930;28;20056;-82
2022/08/23 03:42:45;;;;;;;5.10;2.40;;;14.90;99.90;;;;;;5033650;28;20483;-82
2022/08/23 03:45:11;;;;;;;5.18;2.88;;;14.90;99.90;;;;;;5033940;28;20518;-80
2022/08/23 03:47:37;;;;;;;5.95;3.25;;;15.00;99.90;;;;;;5034000;28;20037;-80
2022/08/23 03:50:03;;;;;;;4.28;2.70;;;14.90;99.90;;;;;;5053726;28;20041;-80
2022/08/23 03:52:29;;;;;;;4.43;2.92;;;14.90;99.90;;;;;;5021869;28;20033;-80
2022/08/23 03:54:54;;;;;;;8.18;2.60;;;15.00;99.90;;;;;;5054302;28;20044;-80
2022/08/23 03:57:20;;;;;;;6.25;2.47;;;15.00;99.90;;;;;;5053993;28;20048;-80
2022/08/23 03:59:47;;;;;;;3.65;1.95;;;14.90;99.90;;;;;;5052082;28;20044;-80
2022/08/23 04:02:14;;;;;;;4.75;2.40;;;14.90;99.90;;;;;;5051440;28;20105;-81
2022/08/23 04:04:41;;;;;;;4.10;2.45;;;14.90;99.90;;;;;;5037392;28;20391;-82
2022/08/23 04:07:07;;;;;;;4.43;2.75;;;14.80;99.90;;;;;;5053760;28;20044;-81
2022/08/23 04:09:33;;;;;;;4.70;2.88;;;14.80;99.90;;;;;;5026941;28;20041;-81
2022/08/23 04:11:59;;;;;;;5.00;2.60;;;14.80;99.90;;;;;;5026141;28;20124;-81
2022/08/23 04:14:25;;;;;;;4.15;2.60;;;14.80;99.90;;;;;;5036871;28;20454;-81
2022/08/23 04:16:51;;;;;;;4.38;2.70;;;14.70;99.90;;;;;;5037532;28;20029;-80
2022/08/23 04:19:17;;;;;;;5.38;2.53;;;14.70;99.90;;;;;;5049903;28;20108;-79
2022/08/23 04:21:47;;;;;;;3.28;2.10;;;14.70;99.90;;;;;;5020482;28;20117;-79
2022/08/23 04:24:13;;;;;;;3.28;2.00;;;14.70;99.90;;;;;;5051727;28;20039;-80
2022/08/23 04:26:40;;;;;;;3.10;1.90;;;14.70;99.90;;;;;;5054479;28;20067;-79
2022/08/23 04:29:07;;;;;;;2.70;1.88;;;14.60;99.90;;;;;;5053467;28;20383;-80
2022/08/23 04:31:33;;;;;;;3.83;2.25;;;14.60;99.90;;;;;;5035586;28;20752;-80
2022/08/23 04:33:59;;;;;;;2.85;1.98;;;14.60;99.90;;;;;;5037883;28;20029;-82
2022/08/23 04:36:26;;;;;;;4.10;2.50;;;14.60;99.90;;;;;;5053068;28;20098;-82
2022/08/23 04:38:52;;;;;;;3.35;2.13;;;14.60;99.90;;;;;;5055298;28;20044;-82
2022/08/23 04:44:04;;;;;;;4.97;2.40;;;14.60;99.90;;;;;;5052892;28;20762;-82
2022/08/23 04:46:30;;;;;;;3.85;2.00;;;14.70;99.90;;;;;;5022720;28;20045;-82
2022/08/23 04:48:55;;;;;;;3.80;2.50;;;14.60;99.90;;;;;;5051151;28;20044;-82
2022/08/23 04:51:21;;;;;;;3.35;2.40;;;14.60;99.90;;;;;;5053233;28;20040;-82
2022/08/23 04:53:47;;;;;;;3.13;1.90;;;14.70;99.90;;;;;;5059012;28;20371;-81
2022/08/23 04:56:13;;;;;;;4.45;2.40;;;14.70;99.90;;;;;;5049411;28;20045;-82
2022/08/23 04:58:40;;;;;;;7.07;3.22;;;14.70;99.90;;;;;;5052891;28;20037;-81
2022/08/23 05:01:09;;;;;;;4.55;2.78;;;14.80;99.90;;;;;;5019943;28;20044;-82
2022/08/23 05:03:35;;;;;;;3.55;2.20;;;14.80;99.90;;;;;;5052089;28;20044;-82
2022/08/23 05:06:02;;;;;;;3.65;2.40;;;14.80;99.90;;;;;;5036913;28;20044;-82
2022/08/23 05:08:28;;;;;;;3.55;2.28;;;14.80;99.90;;;;;;5020241;28;20037;-81
2022/08/23 05:10:54;;;;;;;3.83;2.58;;;14.90;99.90;;;;;;5052466;28;20536;-82
2022/08/23 05:13:19;;;;;;;4.30;2.38;;;14.90;99.90;;;;;;5003338;28;20132;-82
2022/08/23 05:15:45;;;;;;;5.05;3.05;;;15.00;99.90;;;;;;5047745;28;20446;-82
2022/08/23 05:18:11;;;;;;;4.68;2.78;;;15.10;99.90;;;;;;5044410;28;20040;-82
2022/08/23 05:20:38;;;;;;;4.82;2.88;;;15.10;99.90;;;;;;5072333;28;20052;-82
2022/08/23 05:23:04;;;;;;;4.70;2.88;;;15.20;99.90;;;;;;5066623;28;20056;-82
2022/08/23 05:25:48;;;;;;;5.43;3.50;;;15.20;99.90;;;;;;5016624;28;20037;-82
2022/08/23 05:28:27;;;;;;;6.63;3.45;;;15.30;99.90;;;;;;5055560;28;20357;-82
2022/08/23 05:31:06;;;;;;;4.88;3.25;;;15.40;99.90;;;;;;5052653;28;20076;-82
2022/08/23 05:33:33;;;;;;;5.38;2.97;;;15.60;99.90;;;;;;5035637;28;20043;-82
2022/08/23 05:36:03;;;;;;;6.97;3.65;;;15.70;99.90;;;;;;5049571;28;20045;-82
2022/08/23 05:38:29;;;;;;;6.82;4.35;;;15.80;99.90;;;;;;5070046;28;20072;-82
2022/08/23 05:40:56;;;;;;;5.88;3.88;;;15.90;99.90;;;;;;5055675;28;20091;-81
2022/08/23 05:43:24;;;;;;;6.10;3.95;;;16.00;99.90;;;;;;5055553;28;20041;-82
2022/08/23 05:46:12;;;;;;;7.45;4.90;;;16.20;99.90;;;;;;5047229;28;20417;-82
2022/08/23 05:48:39;;;;;;;9.65;3.97;;;16.40;99.90;;;;;;5050711;28;20076;-82
2022/08/23 05:51:19;;;;;;;10.50;4.93;;;16.60;99.90;;;;;;5035696;28;20037;-82
2022/08/23 05:53:46;;;;;;;7.35;4.68;;;16.80;99.90;;;;;;5046812;28;20044;-82
2022/08/23 05:56:25;;;;;;;5.32;3.38;;;16.90;99.90;;;;;;5064233;28;20033;-82
2022/08/23 05:58:54;;;;;;;6.85;4.03;;;16.90;99.90;;;;;;5050606;28;20091;-82
2022/08/23 06:01:20;;;;;;;5.75;3.30;;;17.00;99.90;;;;;;5035819;28;20057;-82
2022/08/23 06:03:46;;;;;;;6.25;4.50;;;17.00;99.90;;;;;;5052071;28;20490;-82
2022/08/23 06:06:15;;;;;;;5.20;3.60;;;17.00;99.90;;;;;;5040816;28;20045;-82
2022/08/23 06:08:43;;;;;;;7.38;4.30;;;17.00;99.90;;;;;;5055513;28;20083;-82
2022/08/23 06:11:12;;;;;;;8.50;4.82;;;17.10;99.90;;;;;;5068188;28;20033;-82
2022/08/23 06:13:41;;;;;;;8.60;3.85;;;17.10;99.90;;;;;;5056016;28;20457;-82
2022/08/23 06:16:08;;;;;;;8.55;4.68;;;17.20;99.90;;;;;;5028899;28;20625;-82
2022/08/23 06:18:33;;;;;;;9.80;5.15;;;17.30;99.90;;;;;;5045527;28;20045;-82
2022/08/23 06:21:08;;;;;;;11.07;5.10;;;17.40;99.90;;;;;;5070365;28;20059;-82
2022/08/23 06:23:35;;;;;;;7.50;5.20;;;17.70;99.90;;;;;;5059865;28;20045;-82
2022/08/23 06:26:10;;;;;;;6.32;4.00;;;17.90;99.90;;;;;;5057924;28;20044;-82
2022/08/23 06:28:36;;;;;;;7.85;4.72;;;18.20;99.90;;;;;;5040490;28;20067;-82
2022/08/23 06:31:01;;;;;;;10.57;5.35;;;19.10;99.90;;;;;;5055831;28;20407;-82
2022/08/23 06:33:27;;;;;;;8.73;5.05;;;20.50;99.90;;;;;;5054208;28;20045;-83
2022/08/23 06:36:07;;;;;;;6.90;4.82;;;21.90;99.90;;;;;;5038035;28;20392;-82
2022/08/23 06:38:34;;;;;;;6.70;4.47;;;23.40;99.90;;;;;;5054035;28;20041;-82
2022/08/23 06:41:02;;;;;;;10.18;4.32;;;24.60;99.90;;;;;;5050646;28;20060;-82
2022/08/23 06:43:28;;;;;;;5.88;4.43;;;25.70;99.90;;;;;;5054378;28;20048;-82
2022/08/23 06:46:05;;;;;;;7.97;4.03;;;26.60;99.90;;;;;;5041302;28;20128;-82
2022/08/23 06:48:30;;;;;;;4.07;2.95;;;27.10;99.90;;;;;;5066674;28;20049;-82
2022/08/23 06:50:56;;;;;;;6.43;3.65;;;28.20;99.10;;;;;;5045197;28;20037;-83
2022/08/23 06:53:22;;;;;;;6.22;3.65;;;28.40;96.30;;;;;;5022808;28;20067;-80
2022/08/23 06:55:48;;;;;;;4.68;3.03;;;28.60;94.80;;;;;;5040596;28;20033;-80
2022/08/23 06:58:14;;;;;;;5.20;2.53;;;29.50;96.00;;;;;;5043772;28;20094;-79
2022/08/23 07:00:39;;;;;;;8.60;3.05;;;30.00;94.20;;;;;;5040287;28;20399;-80
2022/08/23 07:03:06;;;;;;;3.83;2.50;;;30.40;93.00;;;;;;5042398;28;20101;-80
2022/08/23 07:05:32;;;;;;;4.50;2.63;;;30.50;93.10;;;;;;5020593;28;20052;-80
2022/08/23 07:07:57;;;;;;;5.63;2.83;;;31.00;92.00;;;;;;5036733;28;20042;-80
2022/08/23 07:10:23;;;;;;;5.53;2.95;;;31.00;91.90;;;;;;5053126;28;20037;-80
2022/08/23 07:12:49;;;;;;;5.55;3.03;;;31.40;91.30;;;;;;5059157;28;20525;-80
2022/08/23 07:15:15;;;;;;;4.43;2.70;;;31.00;90.20;;;;;;5038673;28;20132;-80
2022/08/23 07:17:40;;;;;;;4.47;2.70;;;31.20;90.40;;;;;;5037953;28;20045;-80
2022/08/23 07:20:06;;;;;;;4.72;2.58;;;31.70;89.80;;;;;;5056583;28;20101;-80
2022/08/23 07:22:32;;;;;;;6.10;2.63;;;32.30;89.40;;;;;;5029549;28;20044;-80
2022/08/23 07:24:58;;;;;;;3.40;2.00;;;32.90;87.30;;;;;;5058373;28;20044;-80
2022/08/23 07:27:24;;;;;;;3.50;2.08;;;33.40;85.70;;;;;;5039045;28;20445;-80
2022/08/23 07:29:49;;;;;;;3.88;2.45;;;33.70;83.70;;;;;;5038958;28;20521;-80
2022/08/23 07:32:15;;;;;;;3.80;2.00;;;34.10;84.10;;;;;;5046943;28;20475;-81
2022/08/23 07:34:41;;;;;;;2.80;2.05;;;34.30;83.20;;;;;;5041470;28;20029;-81
2022/08/23 07:37:06;;;;;;;3.15;2.00;;;34.60;82.60;;;;;;5057580;28;20122;-83
2022/08/23 07:39:32;;;;;;;5.95;2.03;;;34.90;81.10;;;;;;5034693;28;20033;-83
2022/08/23 07:42:00;;;;;;;5.40;2.80;;;35.00;78.60;;;;;;5021996;28;20096;-83
2022/08/23 07:44:25;;;;;;;3.65;2.05;;;35.30;78.70;;;;;;5038174;28;20041;-83
2022/08/23 07:46:51;;;;;;;3.55;2.03;;;35.60;77.80;;;;;;5037477;28;20048;-83
2022/08/23 07:49:17;;;;;;;6.60;2.33;;;35.80;77.10;;;;;;5021082;28;20120;-83
2022/08/23 07:51:48;;;;;;;5.10;2.00;;;35.30;75.20;;;;;;5040270;28;20029;-83
2022/08/23 07:54:15;;;;;;;5.22;2.22;;;35.30;75.20;;;;;;5054176;28;20453;-82
2022/08/23 07:56:41;;;;;;;3.00;1.70;;;36.00;76.60;;;;;;5053762;28;20045;-82
2022/08/23 07:59:07;;;;;;;2.00;1.42;;;36.00;75.30;;;;;;5024678;28;20480;-82
2022/08/23 08:01:33;;;;;;;4.63;2.65;;;36.00;74.00;;;;;;5033809;28;20372;-82
2022/08/23 08:04:01;;;;;;;3.00;1.60;;;35.90;74.10;;;;;;5054897;28;20117;-82
2022/08/23 08:06:45;;;;;;;2.72;1.98;;;36.30;74.80;;;;;;5038303;28;20045;-83
2022/08/23 08:09:11;;;;;;;3.38;1.98;;;36.70;73.70;;;;;;5048728;28;20041;-82
2022/08/23 08:11:40;;;;;;;2.63;1.77;;;37.20;72.00;;;;;;5056997;28;20442;-80
2022/08/23 08:14:09;;;;;;;2.75;1.70;;;37.40;73.10;;;;;;5044012;28;20094;-81
2022/08/23 08:16:38;;;;;;;3.55;1.77;;;37.70;69.60;;;;;;5052565;28;20113;-81
2022/08/23 08:19:07;;;;;;;6.03;2.15;;;37.20;70.10;;;;;;5050844;28;20045;-81
2022/08/23 08:21:34;;;;;;;5.00;2.03;;;37.00;68.40;;;;;;5050739;28;20482;-82
2022/08/23 08:24:00;;;;;;;2.28;1.60;;;36.30;69.70;;;;;;5036745;28;20048;-82
2022/08/23 08:26:26;;;;;;;2.75;1.60;;;35.40;71.00;;;;;;5011746;28;20164;-81
2022/08/23 08:28:54;;;;;;;3.13;1.63;;;34.90;71.50;;;;;;5045197;28;20115;-82
2022/08/23 08:31:22;;;;;;;3.80;1.80;;;35.10;72.50;;;;;;5049474;28;20596;-82
2022/08/23 08:33:47;;;;;;;3.03;1.60;;;35.50;70.80;;;;;;5036115;28;20083;-81
2022/08/23 08:36:37;;;;;;;2.38;1.77;;;36.30;70.80;;;;;;5056469;28;20126;-82
2022/08/23 08:39:12;;;;;;;4.18;1.63;;;36.20;71.00;;;;;;5016081;28;20112;-82
2022/08/23 08:41:47;;;;;;;3.95;1.83;;;37.30;70.70;;;;;;5044819;28;20041;-82
2022/08/23 08:44:22;;;;;;;3.53;1.80;;;37.40;69.50;;;;;;5051769;28;20036;-83
2022/08/23 08:46:52;;;;;;;3.75;2.00;;;37.90;70.00;;;;;;5061840;28;20053;-83
2022/08/23 08:49:32;;;;;;;4.25;1.90;;;38.00;68.60;;;;;;5038340;28;20068;-83
2022/08/23 08:52:04;;;;;;;3.35;1.85;;;36.80;69.50;;;;;;5053049;28;20040;-83
2022/08/23 08:54:31;;;;;;;3.83;1.73;;;36.10;69.70;;;;;;5052095;28;20041;-83
2022/08/23 08:56:59;;;;;;;4.22;2.08;;;36.40;71.70;;;;;;5052452;28;20052;-84
2022/08/23 09:00:16;;;;;;;3.97;2.17;;;36.20;70.90;;;;;;5018043;28;20055;-84
2022/08/23 09:02:43;;;;;;;2.80;1.92;;;35.70;71.40;;;;;;5033149;28;20041;-82
2022/08/23 09:05:26;;;;;;;3.13;2.00;;;36.00;70.70;;;;;;5048600;28;20040;-82
2022/08/23 09:08:26;;;;;;;4.50;1.83;;;35.60;71.60;;;;;;5039946;28;20042;-82
2022/08/23 09:11:12;;;;;;;3.33;1.70;;;35.30;71.80;;;;;;5053163;28;20115;-82
2022/08/23 09:13:39;;;;;;;3.42;2.03;;;34.60;74.30;;;;;;5038246;28;20079;-82
2022/08/23 09:16:10;;;;;;;5.35;2.10;;;34.60;72.60;;;;;;5058660;28;20095;-82
2022/08/23 09:18:36;;;;;;;3.13;1.77;;;34.20;73.40;;;;;;5036422;28;20039;-84
2022/08/23 09:21:06;;;;;;;8.00;1.73;;;34.40;74.20;;;;;;5031882;28;20391;-83
2022/08/23 09:23:39;;;;;;;3.58;2.13;;;34.70;73.10;;;;;;5051684;28;20079;-83
2022/08/23 09:26:16;;;;;;;5.60;1.85;;;35.30;71.90;;;;;;5059535;28;20351;-84
2022/08/23 09:28:44;;;;;;;3.65;1.90;;;35.70;71.80;;;;;;5050546;28;20123;-84
2022/08/23 09:31:10;;;;;;;3.28;1.70;;;35.30;71.80;;;;;;5047910;28;20426;-84
2022/08/23 09:33:42;;;;;;;2.90;1.90;;;35.50;70.60;;;;;;5004254;28;20032;-84
2022/08/23 09:36:14;;;;;;;3.17;1.83;;;34.70;70.50;;;;;;5029487;28;20039;-84
2022/08/23 09:38:55;;;;;;;4.35;1.85;;;34.90;72.00;;;;;;5041595;28;20045;-84
2022/08/23 09:41:38;;;;;;;2.55;1.80;;;34.90;71.70;;;;;;5056684;28;20087;-84
2022/08/23 09:44:12;;;;;;;2.97;2.17;;;34.80;71.00;;;;;;5058986;28;20425;-84
2022/08/23 09:46:42;;;;;;;4.43;1.85;;;34.30;71.50;;;;;;5052003;28;20048;-84
2022/08/23 09:49:28;;;;;;;3.30;1.80;;;34.20;72.20;;;;;;5058347;28;20513;-84
2022/08/23 09:51:59;;;;;;;2.92;1.80;;;35.30;70.70;;;;;;5037245;28;20029;-82
2022/08/23 09:54:34;;;;;;;6.15;2.03;;;35.80;71.90;;;;;;5041061;28;20037;-82
2022/08/23 09:57:08;;;;;;;4.03;1.73;;;36.00;71.10;;;;;;5046981;28;20414;-82
2022/08/23 09:59:46;;;;;;;3.40;2.15;;;36.50;69.20;;;;;;5040271;28;20068;-82
2022/08/23 10:02:22;;;;;;;1.83;1.35;;;37.30;68.90;;;;;;5056844;28;20102;-82
2022/08/23 10:04:56;;;;;;;4.07;1.60;;;37.70;66.50;;;;;;5055142;28;20083;-82
2022/08/23 10:07:28;;;;;;;2.63;1.73;;;37.40;67.70;;;;;;5057383;28;20043;-82
2022/08/23 10:10:11;;;;;;;2.70;1.40;;;37.00;68.40;;;;;;5038713;28;20045;-82
2022/08/23 10:12:37;;;;;;;2.08;1.67;;;37.20;67.70;;;;;;5044935;28;20564;-81
2022/08/23 10:15:04;;;;;;;2.80;1.83;;;37.80;66.80;;;;;;5057683;28;20061;-82
2022/08/23 10:17:48;;;;;;;2.88;1.80;;;37.80;66.90;;;;;;5024327;28;20127;-82
2022/08/23 10:20:36;;;;;;;2.55;1.65;;;38.00;65.90;;;;;;5048577;28;20060;-82
2022/08/23 10:23:38;;;;;;;5.22;1.92;;;37.90;66.20;;;;;;5054955;28;20071;-82
2022/08/23 10:26:08;;;;;;;3.08;1.60;;;38.20;67.60;;;;;;5058515;28;20178;-83
2022/08/23 10:31:36;;;;;;;3.22;1.70;;;38.80;67.70;;;;;;5073500;28;20048;-82
2022/08/23 10:34:17;;;;;;;4.18;1.80;;;39.20;66.70;;;;;;5060828;28;20433;-83
2022/08/23 10:37:11;;;;;;;7.03;2.10;;;38.40;65.80;;;;;;5040234;28;20059;-82
2022/08/23 10:40:27;;;;;;;3.45;1.83;;;38.20;65.70;;;;;;5058407;28;20045;-82
2022/08/23 10:43:24;;;;;;;2.00;1.55;;;37.80;65.30;;;;;;5034708;28;20048;-82
2022/08/23 10:45:51;;;;;;;2.83;1.80;;;38.60;66.00;;;;;;5071222;28;20049;-82
2022/08/23 10:48:30;;;;;;;5.32;2.08;;;38.90;65.30;;;;;;5075676;28;20119;-82
2022/08/23 10:51:11;;;;;;;4.15;1.88;;;38.50;65.50;;;;;;5055375;28;20037;-83
2022/08/23 10:53:55;;;;;;;5.38;1.83;;;38.50;64.70;;;;;;5047869;28;20048;-82
2022/08/23 10:56:22;;;;;;;3.40;1.90;;;38.90;63.80;;;;;;5053763;28;20364;-83
2022/08/23 10:59:02;;;;;;;3.90;1.50;;;38.90;65.50;;;;;;5037358;28;20048;-82
2022/08/23 11:01:45;;;;;;;1.83;1.33;;;39.30;64.70;;;;;;5053056;28;20040;-82
2022/08/23 11:04:26;;;;;;;4.72;1.83;;;39.60;62.50;;;;;;5037114;28;20032;-82
2022/08/23 11:06:56;;;;;;;3.25;1.80;;;39.60;62.70;;;;;;5054809;28;20041;-82
2022/08/23 11:09:22;;;;;;;2.88;1.92;;;39.40;62.60;;;;;;5051490;28;20704;-82
2022/08/23 11:12:05;;;;;;;3.78;1.80;;;39.50;63.40;;;;;;5035835;28;20033;-82
2022/08/23 11:14:57;;;;;;;3.90;1.60;;;39.90;63.60;;;;;;5054742;28;20083;-84
2022/08/23 11:17:52;;;;;;;6.50;1.45;;;40.10;63.30;;;;;;5035132;28;20081;-85
2022/08/23 11:20:37;;;;;;;;;;;40.20;62.20;;;;;;5049890;28;20053;-85
2022/08/23 11:23:06;;;;;;;8.13;2.05;;;39.70;62.10;;;;;;5036917;28;19917;-85
2022/08/23 11:25:32;;;;;;;1.52;1.38;;;39.50;60.30;;;;;;5037839;28;20041;-84
2022/08/23 11:28:22;;;;;;;4.97;1.50;;;38.90;61.60;;;;;;5036710;28;20530;-84
2022/08/23 11:30:59;;;;;;;2.10;1.27;;;38.10;62.40;;;;;;5053826;28;20041;-82
2022/08/23 11:34:06;;;;;;;2.63;1.50;;;38.70;60.50;;;;;;5036189;28;20041;-83
2022/08/23 11:36:35;;;;;;;2.30;1.40;;;38.80;60.00;;;;;;4974802;28;20542;-83
2022/08/23 11:39:08;;;;;;;2.50;1.50;;;39.10;60.70;;;;;;4967875;28;20035;-82
2022/08/23 11:41:56;;;;;;;2.08;1.58;;;38.60;59.90;;;;;;5009282;28;20395;-82
2022/08/23 11:44:35;;;;;;;2.55;1.65;;;38.30;60.90;;;;;;5028921;28;20137;-83
2022/08/23 11:47:04;;;;;;;3.40;2.15;;;38.40;61.80;;;;;;5039718;28;20044;-84
2022/08/23 11:49:48;;;;;;;2.13;1.50;;;38.40;60.90;;;;;;5056147;28;20044;-84
2022/08/23 11:52:18;;;;;;;1.67;1.30;;;38.40;61.10;;;;;;5056951;28;20080;-84
2022/08/23 11:54:59;;;;;;;3.80;1.48;;;38.20;60.60;;;;;;5074884;28;20058;-84
2022/08/23 11:57:25;;;;;;;3.08;1.60;;;38.20;61.50;;;;;;5044785;28;20041;-84
2022/08/23 12:00:15;;;;;;;3.83;1.45;;;38.00;61.10;;;;;;5055941;28;20049;-84
2022/08/23 12:03:03;;;;;;;2.60;1.35;;;38.10;62.60;;;;;;5055818;28;20041;-84
2022/08/23 12:05:41;;;;;;;4.55;2.05;;;38.10;61.60;;;;;;5055901;28;20132;-84
2022/08/23 12:08:07;;;;;;;2.75;1.38;;;37.20;61.00;;;;;;5038039;28;20108;-85
2022/08/23 12:10:42;;;;;;;2.83;1.60;;;36.80;61.50;;;;;;5074931;28;20075;-84
2022/08/23 12:13:16;;;;;;;;;;;37.00;62.80;;;;;;5062966;28;20040;-84
2022/08/23 12:16:04;;;;;;;5.50;2.00;;;36.80;62.10;;;;;;5055588;28;19923;-84
2022/08/23 12:18:33;;;;;;;4.40;1.85;;;37.10;62.10;;;;;;5018770;28;20064;-84
2022/08/23 12:21:01;;;;;;;2.88;1.48;;;36.90;62.10;;;;;;5050351;28;20065;-85
2022/08/23 12:23:27;;;;;;;2.88;1.70;;;36.60;62.50;;;;;;5050170;28;20384;-85
2022/08/23 12:26:10;;;;;;;3.83;1.60;;;36.70;64.50;;;;;;5017191;28;20073;-85
2022/08/23 12:28:45;;;;;;;2.88;1.60;;;36.80;62.10;;;;;;5050737;28;20102;-83
2022/08/23 12:31:27;;;;;;;5.63;2.00;;;36.90;62.20;;;;;;5053759;28;20037;-83
2022/08/23 12:34:23;;;;;;;2.55;1.15;;;37.00;63.30;;;;;;5052363;28;20044;-83
2022/08/23 12:37:19;;;;;;;5.72;1.70;;;36.70;62.00;;;;;;5052349;28;20045;-83
2022/08/23 12:39:56;;;;;;;6.82;2.03;;;36.40;62.90;;;;;;5051989;28;20379;-83
2022/08/23 12:42:32;;;;;;;2.75;1.75;;;36.20;62.40;;;;;;5052420;28;20055;-83
2022/08/23 12:44:59;;;;;;;3.75;1.65;;;36.20;64.20;;;;;;5052189;28;20037;-83
2022/08/23 12:47:25;;;;;;;3.13;1.63;;;36.20;63.50;;;;;;5052374;28;20091;-83
2022/08/23 12:50:14;;;;;;;2.75;1.80;;;36.30;63.10;;;;;;5035711;28;20037;-83
2022/08/23 12:52:40;;;;;;;4.10;1.85;;;36.20;63.60;;;;;;5035301;28;20534;-83
2022/08/23 12:55:15;;;;;;;3.13;1.73;;;36.40;64.70;;;;;;5058796;28;20457;-83
2022/08/23 12:57:48;;;;;;;4.05;1.95;;;36.40;61.90;;;;;;5040939;28;20043;-83
2022/08/23 13:00:18;;;;;;;2.45;1.60;;;35.90;63.60;;;;;;5043386;28;20056;-83
2022/08/23 13:03:11;;;;;;;3.60;1.70;;;36.30;65.50;;;;;;5031386;28;20128;-83
2022/08/23 13:05:54;;;;;;;3.42;1.90;;;36.00;64.00;;;;;;5030125;28;20072;-83
2022/08/23 13:08:23;;;;;;;4.25;2.00;;;35.90;64.60;;;;;;5070585;28;20040;-83
2022/08/23 13:10:50;;;;;;;2.85;1.58;;;35.60;64.10;;;;;;5071311;28;20042;-85
2022/08/23 13:13:22;;;;;;;3.67;1.67;;;35.80;65.50;;;;;;5068794;28;20041;-85
2022/08/23 13:15:53;;;;;;;2.70;1.40;;;35.70;63.70;;;;;;5062726;28;20040;-85
2022/08/23 13:18:45;;;;;;;2.67;1.60;;;35.50;65.60;;;;;;5049821;28;20044;-85
2022/08/23 13:21:29;;;;;;;2.00;1.30;;;35.40;64.40;;;;;;5049385;28;20084;-84